createdAt,value
2023-02-11T00:00:16.159Z,54.09
2023-02-11T00:02:58.263Z,52.49
2023-02-11T00:05:40.475Z,52.55
2023-02-11T00:08:29.140Z,53.48
2023-02-11T00:11:11.430Z,52.67
2023-02-11T00:14:00.562Z,51.85
2023-02-11T00:16:42.537Z,49.69
2023-02-11T00:19:31.155Z,50.38
2023-02-11T00:22:20.176Z,50.34
2023-02-11T00:25:02.513Z,51.86
2023-02-11T00:27:52.221Z,50.25
2023-02-11T00:30:48.132Z,50.21
2023-02-11T00:33:37.188Z,50.84
2023-02-11T00:36:25.425Z,49.37
2023-02-11T00:39:16.143Z,50.00
2023-02-11T00:41:58.401Z,48.74
2023-02-11T00:44:47.207Z,49.09
2023-02-11T00:47:29.370Z,48.96
2023-02-11T00:50:18.190Z,49.04
2023-02-11T00:53:00.674Z,49.94
2023-02-11T00:55:49.350Z,49.67
2023-02-11T00:58:33.538Z,48.59
2023-02-11T01:01:22.197Z,48.02
2023-02-11T01:04:04.424Z,47.17
2023-02-11T01:06:53.193Z,46.94
2023-02-11T01:09:42.135Z,47.83
2023-02-11T01:12:33.980Z,46.30
2023-02-11T01:15:28.143Z,46.19
2023-02-11T01:18:17.166Z,47.97
2023-02-11T01:21:01.486Z,47.68
2023-02-11T01:23:50.158Z,47.49
2023-02-11T01:26:32.442Z,46.37
2023-02-11T01:29:21.109Z,46.25
2023-02-11T01:32:10.499Z,47.77
2023-02-11T01:34:53.258Z,45.60
2023-02-11T01:37:42.940Z,47.17
2023-02-11T01:40:27.154Z,47.05
2023-02-11T01:43:19.381Z,46.32
2023-02-11T01:46:11.243Z,44.98
2023-02-11T01:49:19.514Z,45.44
2023-02-11T01:52:09.258Z,44.98
2023-02-11T01:55:23.372Z,45.03
2023-02-11T01:58:09.118Z,48.36
2023-02-11T02:00:58.383Z,47.54
2023-02-11T02:03:44.175Z,49.55
2023-02-11T02:06:55.396Z,49.47
2023-02-11T02:09:42.217Z,49.13
2023-02-11T02:12:30.398Z,48.36
2023-02-11T02:15:34.133Z,49.32
2023-02-11T02:18:31.136Z,49.35
2023-02-11T02:21:39.412Z,50.51
2023-02-11T02:24:41.447Z,50.06
2023-02-11T02:27:38.168Z,48.31
2023-02-11T02:30:33.191Z,49.82
2023-02-11T02:33:36.454Z,47.17
2023-02-11T02:36:46.266Z,47.91
2023-02-11T02:39:34.384Z,46.53
2023-02-11T02:42:24.211Z,47.15
2023-02-11T02:45:06.375Z,48.09
2023-02-11T02:47:55.113Z,47.37
2023-02-11T02:50:43.426Z,45.89
2023-02-11T02:54:03.171Z,47.17
2023-02-11T02:57:02.468Z,44.05
2023-02-11T03:00:28.155Z,42.49
2023-02-11T03:03:18.431Z,42.11
2023-02-11T03:06:30.118Z,42.62
2023-02-11T03:09:28.520Z,40.11
2023-02-11T03:12:18.179Z,39.25
2023-02-11T03:15:01.498Z,40.44
2023-02-11T03:17:54.139Z,40.21
2023-02-11T03:20:45.136Z,38.05
2023-02-11T03:23:48.160Z,39.34
2023-02-11T03:26:39.389Z,37.80
2023-02-11T03:29:45.139Z,36.67
2023-02-11T03:32:47.022Z,38.53
2023-02-11T03:35:48.464Z,37.01
2023-02-11T03:38:37.400Z,35.58
2023-02-11T03:41:31.127Z,35.60
2023-02-11T03:44:15.363Z,34.82
2023-02-11T03:47:04.065Z,36.00
2023-02-11T03:49:49.430Z,33.73
2023-02-11T03:52:39.103Z,36.11
2023-02-11T03:55:26.980Z,33.77
2023-02-11T03:58:16.080Z,32.02
2023-02-11T04:00:58.511Z,34.04
2023-02-11T04:03:47.379Z,31.96
2023-02-11T04:06:29.488Z,32.83
2023-02-11T04:09:18.125Z,32.35
2023-02-11T04:12:00.434Z,31.79
2023-02-11T04:14:49.160Z,32.19
2023-02-11T04:17:38.168Z,30.38
2023-02-11T04:20:27.136Z,31.81
2023-02-11T04:23:09.363Z,29.10
2023-02-11T04:25:59.078Z,29.61
2023-02-11T04:28:48.120Z,28.59
2023-02-11T04:31:44.159Z,29.01
2023-02-11T04:34:33.125Z,26.48
2023-02-11T04:37:15.478Z,27.27
2023-02-11T04:40:04.121Z,26.73
2023-02-11T04:42:46.398Z,26.82
2023-02-11T04:45:35.483Z,27.78
2023-02-11T04:48:17.444Z,28.97
2023-02-11T04:51:06.161Z,27.57
2023-02-11T04:53:49.488Z,30.88
2023-02-11T04:56:38.068Z,29.33
2023-02-11T04:59:20.445Z,28.83
2023-02-11T05:02:09.166Z,27.02
2023-02-11T05:04:51.475Z,25.40
2023-02-11T05:07:40.087Z,27.75
2023-02-11T05:10:22.401Z,27.46
2023-02-11T05:13:11.232Z,27.80
2023-02-11T05:15:53.548Z,28.91
2023-02-11T05:18:42.154Z,26.50
2023-02-11T05:21:27.478Z,29.13
2023-02-11T05:24:16.101Z,25.95
2023-02-11T05:27:05.137Z,28.00
2023-02-11T05:29:48.374Z,26.95
2023-02-11T05:32:37.223Z,26.51
2023-02-11T05:35:26.400Z,27.59
2023-02-11T05:38:08.085Z,26.48
2023-02-11T05:40:50.289Z,27.19
2023-02-11T05:43:39.136Z,27.85
2023-02-11T05:46:21.470Z,29.24
2023-02-11T05:49:10.058Z,26.91
2023-02-11T05:51:52.408Z,27.77
2023-02-11T05:54:41.501Z,32.95
2023-02-11T05:57:29.446Z,27.87
2023-02-11T06:00:13.119Z,30.94
2023-02-11T06:03:02.025Z,31.17
2023-02-11T06:05:51.351Z,29.51
2023-02-11T06:08:39.524Z,32.08
2023-02-11T06:11:24.203Z,29.46
2023-02-11T06:14:12.459Z,28.32
2023-02-11T06:16:55.106Z,30.89
2023-02-11T06:19:43.404Z,27.48
2023-02-11T06:22:26.104Z,28.90
2023-02-11T06:25:15.584Z,29.73
2023-02-11T06:27:58.181Z,35.63
2023-02-11T06:30:54.173Z,32.94
2023-02-11T06:33:43.398Z,32.53
2023-02-11T06:36:29.176Z,33.18
2023-02-11T06:39:20.841Z,30.21
2023-02-11T06:42:05.368Z,28.89
2023-02-11T06:44:56.558Z,27.53
2023-02-11T06:47:38.071Z,27.54
2023-02-11T06:50:27.522Z,30.00
2023-02-11T06:53:10.166Z,28.55
2023-02-11T06:55:58.449Z,27.56
2023-02-11T06:58:41.489Z,28.26
2023-02-11T07:01:31.522Z,29.28
2023-02-11T07:04:14.167Z,28.93
2023-02-11T07:06:56.480Z,27.30
2023-02-11T07:09:45.232Z,31.39
2023-02-11T07:12:33.511Z,30.42
2023-02-11T07:15:16.137Z,27.08
2023-02-11T07:18:05.444Z,28.50
2023-02-11T07:20:48.115Z,26.08
2023-02-11T07:23:30.347Z,27.14
2023-02-11T07:26:24.184Z,26.72
2023-02-11T07:29:13.639Z,27.93
2023-02-11T07:32:02.136Z,28.28
2023-02-11T07:34:44.532Z,29.26
2023-02-11T07:37:33.163Z,27.40
2023-02-11T07:40:16.413Z,28.01
2023-02-11T07:43:05.163Z,24.95
2023-02-11T07:45:47.318Z,24.25
2023-02-11T07:48:36.177Z,25.71
2023-02-11T07:51:22.450Z,24.78
2023-02-11T07:54:11.117Z,25.25
2023-02-11T07:56:53.481Z,23.97
2023-02-11T07:59:42.109Z,26.56
2023-02-11T08:02:24.591Z,26.66
2023-02-11T08:05:13.164Z,25.00
2023-02-11T08:07:58.400Z,23.05
2023-02-11T08:10:47.172Z,22.86
2023-02-11T08:13:29.401Z,24.11
2023-02-11T08:16:18.173Z,24.81
2023-02-11T08:19:02.658Z,22.50
2023-02-11T08:21:52.178Z,25.00
2023-02-11T08:24:34.346Z,24.14
2023-02-11T08:27:23.151Z,24.92
2023-02-11T08:30:05.458Z,24.89
2023-02-11T08:32:54.129Z,25.51
2023-02-11T08:35:36.471Z,25.24
2023-02-11T08:38:25.123Z,25.08
2023-02-11T08:41:09.000Z,25.60
2023-02-11T08:43:58.260Z,24.10
2023-02-11T08:46:40.479Z,25.06
2023-02-11T08:49:30.118Z,25.24
2023-02-11T08:52:12.396Z,23.21
2023-02-11T08:55:01.173Z,24.30
2023-02-11T08:57:43.448Z,24.93
2023-02-11T09:00:32.154Z,24.10
2023-02-11T09:03:14.375Z,21.79
2023-02-11T09:06:03.127Z,22.49
2023-02-11T09:08:51.487Z,23.33
2023-02-11T09:11:43.131Z,23.45
2023-02-11T09:14:30.487Z,22.25
2023-02-11T09:17:19.140Z,23.31
2023-02-11T09:20:01.329Z,23.67
2023-02-11T09:22:50.159Z,23.91
2023-02-11T09:25:33.441Z,24.28
2023-02-11T09:28:22.486Z,23.12
2023-02-11T09:31:04.500Z,24.49
2023-02-11T09:33:58.107Z,23.47
2023-02-11T09:36:43.391Z,23.11
2023-02-11T09:39:34.232Z,22.87
2023-02-11T09:43:03.090Z,23.71
2023-02-11T09:46:04.154Z,23.13
2023-02-11T09:48:50.317Z,22.72
2023-02-11T09:51:50.150Z,23.26
2023-02-11T09:55:05.391Z,23.67
2023-02-11T09:57:53.361Z,22.20
2023-02-11T10:00:46.024Z,23.40
2023-02-11T10:04:07.341Z,24.89
2023-02-11T10:06:50.148Z,24.19
2023-02-11T10:09:41.431Z,24.37
2023-02-11T10:12:59.220Z,22.92
2023-02-11T10:16:05.937Z,21.64
2023-02-11T10:19:17.154Z,22.00
2023-02-11T10:22:33.151Z,22.39
2023-02-11T10:25:35.446Z,22.71
2023-02-11T10:28:30.208Z,23.19
2023-02-11T10:31:19.727Z,23.29
2023-02-11T10:34:14.519Z,22.61
2023-02-11T10:36:56.381Z,23.18
2023-02-11T10:39:47.141Z,21.50
2023-02-11T10:42:29.405Z,21.81
2023-02-11T10:45:32.085Z,21.25
2023-02-11T10:48:35.819Z,22.32
2023-02-11T10:51:28.127Z,22.85
2023-02-11T10:54:20.257Z,24.15
2023-02-11T10:57:09.080Z,22.80
2023-02-11T10:59:51.500Z,24.10
2023-02-11T11:02:44.043Z,23.33
2023-02-11T11:05:31.510Z,24.11
2023-02-11T11:08:21.218Z,24.61
2023-02-11T11:11:11.384Z,24.04
2023-02-11T11:14:04.115Z,26.10
2023-02-11T11:16:46.318Z,25.52
2023-02-11T11:19:35.164Z,26.18
2023-02-11T11:22:30.457Z,25.78
2023-02-11T11:25:35.037Z,27.26
2023-02-11T11:28:31.414Z,27.06
2023-02-11T11:31:42.264Z,27.85
2023-02-11T11:34:40.825Z,27.59
2023-02-11T11:37:36.417Z,28.05
2023-02-11T11:40:21.872Z,29.49
2023-02-11T11:43:23.213Z,29.06
2023-02-11T11:46:08.820Z,28.57
2023-02-11T11:49:00.120Z,29.08
2023-02-11T11:51:44.500Z,29.52
2023-02-11T11:54:36.113Z,29.93
2023-02-11T11:57:26.420Z,29.42
2023-02-11T12:00:43.119Z,30.29
2023-02-11T12:03:43.447Z,31.77
2023-02-11T12:06:59.111Z,30.50
2023-02-11T12:09:44.313Z,32.15
2023-02-11T12:12:40.082Z,31.24
2023-02-11T12:15:44.432Z,30.73
2023-02-11T12:18:51.084Z,29.59
2023-02-11T12:21:39.582Z,30.98
2023-02-11T12:24:37.009Z,29.79
2023-02-11T12:27:52.997Z,30.23
2023-02-11T12:31:00.089Z,30.67
2023-02-11T12:34:32.031Z,32.36
2023-02-11T12:37:22.988Z,31.99
2023-02-11T12:40:29.047Z,32.05
2023-02-11T12:43:35.391Z,33.96
2023-02-11T12:46:47.059Z,34.81
2023-02-11T12:49:42.360Z,36.53
2023-02-11T12:52:53.432Z,35.74
2023-02-11T12:55:51.403Z,36.37
2023-02-11T12:58:44.899Z,37.30
2023-02-11T13:01:39.493Z,37.60
2023-02-11T13:04:29.108Z,38.27
2023-02-11T13:07:28.100Z,37.80
2023-02-11T13:10:31.007Z,37.12
2023-02-11T13:13:32.133Z,39.22
2023-02-11T13:16:35.635Z,37.73
2023-02-11T13:19:44.100Z,37.06
2023-02-11T13:22:58.251Z,39.38
2023-02-11T13:26:03.117Z,37.92
2023-02-11T13:29:10.073Z,37.04
2023-02-11T13:32:24.926Z,37.59
2023-02-11T13:35:44.006Z,38.92
2023-02-11T13:38:33.113Z,39.29
2023-02-11T13:41:24.562Z,40.26
2023-02-11T13:44:17.172Z,40.55
2023-02-11T13:47:12.603Z,41.63
2023-02-11T13:50:01.128Z,42.46
2023-02-11T13:52:50.418Z,41.24
2023-02-11T13:55:35.383Z,40.13
2023-02-11T13:58:27.553Z,41.40
2023-02-11T14:01:10.118Z,40.16
2023-02-11T14:04:39.098Z,41.15
2023-02-11T14:08:02.079Z,42.21
2023-02-11T14:10:51.551Z,43.29
2023-02-11T14:13:42.112Z,44.53
2023-02-11T14:16:38.362Z,45.06
2023-02-11T14:19:39.063Z,46.06
2023-02-11T14:22:48.511Z,45.83
2023-02-11T14:25:35.184Z,45.79
2023-02-11T14:28:35.862Z,47.56
2023-02-11T14:31:29.256Z,46.47
2023-02-11T14:34:59.013Z,46.30
2023-02-11T14:38:06.482Z,47.08
2023-02-11T14:41:03.056Z,47.57
2023-02-11T14:43:49.712Z,47.31
2023-02-11T14:46:41.053Z,48.85
2023-02-11T14:49:34.337Z,48.29
2023-02-11T14:52:32.194Z,47.69
2023-02-11T14:55:39.052Z,47.74
2023-02-11T14:58:32.351Z,50.04
2023-02-11T15:01:39.528Z,49.05
2023-02-11T15:04:38.074Z,49.49
2023-02-11T15:07:27.484Z,50.20
2023-02-11T15:10:11.115Z,49.71
2023-02-11T15:13:00.458Z,52.02
2023-02-11T15:15:45.165Z,50.34
2023-02-11T15:18:41.690Z,50.65
2023-02-11T15:21:36.092Z,50.37
2023-02-11T15:24:42.084Z,50.99
2023-02-11T15:27:30.462Z,52.50
2023-02-11T15:30:29.167Z,51.25
2023-02-11T15:33:33.786Z,52.30
2023-02-11T15:36:20.140Z,51.27
2023-02-11T15:39:39.474Z,53.95
2023-02-11T15:42:52.781Z,52.91
2023-02-11T15:45:49.415Z,52.91
2023-02-11T15:48:46.169Z,55.24
2023-02-11T15:51:46.467Z,54.70
2023-02-11T15:54:32.076Z,54.63
2023-02-11T15:57:21.339Z,54.69
2023-02-11T16:00:04.096Z,54.04
2023-02-11T16:02:58.149Z,55.29
2023-02-11T16:05:46.334Z,55.03
2023-02-11T16:08:38.365Z,56.05
2023-02-11T16:11:42.301Z,56.26
2023-02-11T16:14:47.043Z,55.47
2023-02-11T16:17:37.521Z,55.66
2023-02-11T16:20:28.155Z,56.54
2023-02-11T16:23:12.468Z,57.17
2023-02-11T16:26:29.154Z,56.63
2023-02-11T16:29:23.496Z,56.67
2023-02-11T16:32:34.040Z,56.37
2023-02-11T16:35:22.318Z,57.03
2023-02-11T16:38:05.101Z,56.23
2023-02-11T16:40:54.449Z,56.89
2023-02-11T16:43:37.158Z,57.29
2023-02-11T16:46:28.485Z,56.91
2023-02-11T16:49:33.027Z,56.88
2023-02-11T16:52:24.382Z,57.15
2023-02-11T16:55:08.741Z,56.45
2023-02-11T16:57:59.505Z,57.10
2023-02-11T17:00:42.083Z,58.88
2023-02-11T17:03:38.649Z,57.91
2023-02-11T17:06:22.179Z,58.80
2023-02-11T17:09:10.440Z,57.47
2023-02-11T17:11:53.081Z,58.06
2023-02-11T17:14:42.518Z,58.88
2023-02-11T17:17:25.048Z,57.85
2023-02-11T17:20:14.744Z,57.45
2023-02-11T17:22:58.048Z,58.89
2023-02-11T17:25:47.339Z,59.29
2023-02-11T17:28:30.084Z,57.36
2023-02-11T17:31:19.479Z,59.20
2023-02-11T17:34:14.044Z,58.58
2023-02-11T17:37:08.679Z,59.08
2023-02-11T17:39:51.967Z,59.01
2023-02-11T17:42:40.773Z,58.61
2023-02-11T17:45:24.120Z,59.75
2023-02-11T17:48:13.005Z,60.78
2023-02-11T17:51:02.225Z,59.84
2023-02-11T17:53:51.432Z,60.43
2023-02-11T17:56:34.118Z,61.20
2023-02-11T17:59:22.403Z,60.96
2023-02-11T18:02:05.087Z,61.51
2023-02-11T18:04:56.542Z,61.64
2023-02-11T18:07:39.129Z,60.94
2023-02-11T18:10:21.361Z,63.29
2023-02-11T18:13:10.115Z,62.13
2023-02-11T18:15:58.364Z,61.46
2023-02-11T18:18:41.111Z,62.01
2023-02-11T18:21:30.259Z,63.51
2023-02-11T18:24:13.500Z,62.83
2023-02-11T18:27:01.473Z,63.75
2023-02-11T18:29:44.040Z,63.44
2023-02-11T18:32:39.917Z,62.49
2023-02-11T18:35:29.086Z,63.25
2023-02-11T18:38:11.272Z,63.13
2023-02-11T18:41:00.050Z,63.13
2023-02-11T18:43:44.060Z,62.65
2023-02-11T18:46:32.976Z,63.72
2023-02-11T18:49:15.618Z,63.92
2023-02-11T18:52:06.068Z,63.08
2023-02-11T18:54:48.516Z,63.50
2023-02-11T18:57:38.041Z,61.95
2023-02-11T19:00:21.412Z,60.14
2023-02-11T19:03:11.106Z,60.38
2023-02-11T19:05:56.329Z,59.64
2023-02-11T19:08:45.072Z,60.65
2023-02-11T19:11:46.003Z,59.49
2023-02-11T19:14:38.988Z,59.92
2023-02-11T19:17:21.356Z,59.67
2023-02-11T19:20:09.995Z,59.62
2023-02-11T19:22:52.405Z,59.77
2023-02-11T19:25:40.998Z,59.65
2023-02-11T19:28:23.404Z,59.53
2023-02-11T19:31:17.533Z,59.36
2023-02-11T19:34:05.424Z,59.61
2023-02-11T19:36:49.016Z,60.10
2023-02-11T19:39:37.362Z,60.17
2023-02-11T19:42:20.076Z,60.30
2023-02-11T19:45:11.021Z,60.08
2023-02-11T19:47:54.050Z,60.99
2023-02-11T19:50:43.437Z,61.21
2023-02-11T19:53:25.096Z,61.24
2023-02-11T19:56:15.459Z,61.60
2023-02-11T19:58:58.067Z,62.25
2023-02-11T20:01:40.323Z,61.83
2023-02-11T20:04:32.096Z,63.58
2023-02-11T20:07:20.282Z,62.16
2023-02-11T20:10:03.076Z,62.11
2023-02-11T20:12:51.338Z,62.27
2023-02-11T20:15:34.090Z,61.73
2023-02-11T20:18:22.322Z,61.57
2023-02-11T20:21:04.056Z,61.88
2023-02-11T20:23:54.340Z,60.75
2023-02-11T20:26:41.021Z,62.52
2023-02-11T20:29:32.212Z,62.49
2023-02-11T20:32:16.419Z,63.68
2023-02-11T20:35:04.304Z,63.07
2023-02-11T20:37:47.295Z,63.46
2023-02-11T20:40:35.326Z,63.53
2023-02-11T20:43:18.035Z,63.69
2023-02-11T20:46:16.102Z,62.70
2023-02-11T20:48:59.409Z,63.03
2023-02-11T20:51:48.003Z,62.56
2023-02-11T20:54:37.949Z,62.95
2023-02-11T20:57:27.054Z,62.77
2023-02-11T21:00:10.744Z,62.88
2023-02-11T21:03:03.034Z,63.82
2023-02-11T21:05:45.262Z,63.40
2023-02-11T21:08:34.088Z,63.87
2023-02-11T21:11:22.990Z,64.11
2023-02-11T21:14:12.017Z,64.28
2023-02-11T21:16:55.307Z,65.20
2023-02-11T21:19:44.092Z,65.60
2023-02-11T21:22:26.298Z,65.36
2023-02-11T21:25:16.064Z,64.93
2023-02-11T21:27:58.446Z,65.18
2023-02-11T21:30:48.028Z,65.53
2023-02-11T21:33:31.352Z,66.17
2023-02-11T21:36:19.958Z,66.54
2023-02-11T21:39:02.899Z,65.16
2023-02-11T21:41:51.995Z,65.54
2023-02-11T21:44:34.259Z,66.12
2023-02-11T21:47:23.004Z,65.94
2023-02-11T21:50:05.233Z,65.82
2023-02-11T21:52:54.099Z,66.19
2023-02-11T21:55:36.308Z,66.17
2023-02-11T21:58:24.957Z,67.07
2023-02-11T22:01:14.054Z,66.35
2023-02-11T22:03:56.326Z,66.99
2023-02-11T22:06:48.036Z,64.92
2023-02-11T22:09:37.121Z,65.41
2023-02-11T22:12:19.262Z,66.50
2023-02-11T22:15:07.999Z,66.56
2023-02-11T22:17:50.234Z,66.32
2023-02-11T22:20:39.077Z,65.34
2023-02-11T22:23:21.345Z,65.69
2023-02-11T22:26:15.981Z,66.01
2023-02-11T22:28:59.309Z,66.38
2023-02-11T22:31:48.035Z,65.93
2023-02-11T22:34:42.815Z,64.88
2023-02-11T22:37:31.984Z,66.23
2023-02-11T22:40:15.285Z,66.03
2023-02-11T22:43:04.057Z,66.38
2023-02-11T22:45:46.411Z,66.22
2023-02-11T22:48:34.938Z,66.14
2023-02-11T22:51:26.976Z,67.36
2023-02-11T22:54:19.917Z,67.18
2023-02-11T22:57:09.862Z,66.90
2023-02-11T22:59:58.931Z,66.78
2023-02-11T23:02:41.227Z,65.91
2023-02-11T23:05:31.993Z,64.23
2023-02-11T23:08:19.214Z,64.23
2023-02-11T23:11:19.908Z,64.59
2023-02-11T23:14:09.975Z,63.88
2023-02-11T23:16:59.182Z,63.75
2023-02-11T23:19:41.227Z,63.12
2023-02-11T23:22:29.978Z,63.38
2023-02-11T23:25:19.003Z,61.35
2023-02-11T23:28:07.962Z,61.93
2023-02-11T23:30:50.307Z,61.42
2023-02-11T23:33:38.972Z,61.80
2023-02-11T23:36:29.092Z,62.13
2023-02-11T23:39:21.299Z,60.76
2023-02-11T23:42:06.998Z,61.77
2023-02-11T23:44:55.876Z,61.15
2023-02-11T23:47:44.909Z,61.57
2023-02-11T23:50:33.912Z,62.09
2023-02-11T23:53:16.267Z,61.95
2023-02-11T23:56:05.004Z,61.43
2023-02-11T23:58:53.963Z,61.66
